Time;durP1;ratioP1;P1;durP2;ratioP2;P2;SDS_P1;SDS_P2;PMS_P1;PMS_P2;Temp;Humidity;BMP_temperature;BMP_pressure;BME280_temperature;BME280_humidity;BME280_pressure;Samples;Min_cycle;Max_cycle;Signal;HPM_P1;HPM_P2
2021/05/25 00:00:59;;;;;;;3.22;1.17;;;;;;;4.65;93.59;92936.38;2100711;28;20020;-85
2021/05/25 00:02:00;;;;;;;3.30;0.98;;;;;;;4.64;95.00;92940.16;2114867;28;20027;-86
2021/05/25 00:03:05;;;;;;;3.65;1.00;;;;;;;4.57;95.48;92937.53;2097824;28;20040;-86
2021/05/25 00:04:06;;;;;;;4.38;1.00;;;;;;;4.49;97.15;92936.78;2099254;28;20028;-85
2021/05/25 00:05:08;;;;;;;6.70;1.00;;;;;;;4.47;96.87;92934.50;2105953;28;20036;-85
2021/05/25 00:06:08;;;;;;;6.10;0.88;;;;;;;4.47;96.55;92942.44;2106314;28;20027;-86
2021/05/25 00:07:09;;;;;;;4.63;0.80;;;;;;;4.42;97.64;92939.44;2108230;28;20057;-85
2021/05/25 00:08:10;;;;;;;2.83;1.15;;;;;;;4.41;98.66;92946.63;2102648;28;20027;-85
2021/05/25 00:09:11;;;;;;;4.95;1.20;;;;;;;4.44;97.55;92937.19;2095521;28;20025;-85
2021/05/25 00:10:12;;;;;;;3.38;0.95;;;;;;;4.39;97.75;92919.03;2092863;28;20501;-86
2021/05/25 00:11:13;;;;;;;3.55;0.98;;;;;;;4.45;96.37;92917.50;2111344;28;20032;-86
2021/05/25 00:12:14;;;;;;;2.70;1.00;;;;;;;4.39;94.65;92927.75;2099206;28;20087;-86
2021/05/25 00:13:15;;;;;;;3.80;1.00;;;;;;;4.37;97.00;92937.19;2085225;28;20021;-85
2021/05/25 00:14:19;;;;;;;3.53;0.90;;;;;;;4.22;96.46;92931.16;2104457;28;20058;-86
2021/05/25 00:15:22;;;;;;;1.67;0.80;;;;;;;4.35;95.15;92929.63;2093207;28;20021;-85
2021/05/25 00:16:23;;;;;;;2.72;1.00;;;;;;;4.37;93.67;92918.66;2092527;28;20017;-87
2021/05/25 00:17:24;;;;;;;4.13;1.10;;;;;;;4.48;94.38;92930.75;2093897;28;20028;-86
2021/05/25 00:18:25;;;;;;;2.70;0.73;;;;;;;4.39;93.97;92919.81;2092193;28;20485;-85
2021/05/25 00:19:26;;;;;;;3.88;0.90;;;;;;;4.25;94.71;92919.81;2092632;28;20040;-86
2021/05/25 00:20:27;;;;;;;3.83;0.82;;;;;;;4.13;95.96;92925.50;2083951;28;20076;-85
2021/05/25 00:21:27;;;;;;;2.47;0.85;;;;;;;4.15;97.23;92923.97;2095586;28;20032;-85
2021/05/25 00:22:28;;;;;;;3.30;0.95;;;;;;;4.14;95.73;92919.06;2104887;28;20024;-87
2021/05/25 00:23:29;;;;;;;1.50;0.65;;;;;;;4.23;93.62;92922.84;2093617;28;20028;-85
2021/05/25 00:24:29;;;;;;;5.55;0.85;;;;;;;4.18;94.97;92914.53;2089173;28;20025;-86
2021/05/25 00:25:32;;;;;;;4.90;0.77;;;;;;;4.21;93.46;92916.41;2096048;28;20093;-86
2021/05/25 00:26:33;;;;;;;1.88;0.77;;;;;;;4.19;93.79;92914.16;2099546;28;20096;-86
2021/05/25 00:27:34;;;;;;;3.95;0.98;;;;;;;4.19;95.70;92911.50;2089711;28;20156;-85
2021/05/25 00:28:35;;;;;;;4.45;1.80;;;;;;;4.10;94.15;92913.03;2097453;28;20028;-85
2021/05/25 00:29:36;;;;;;;4.82;0.93;;;;;;;4.11;93.21;92901.31;2106190;28;20024;-85
2021/05/25 00:30:37;;;;;;;3.17;0.93;;;;;;;4.13;94.67;92913.03;2101581;28;20025;-86
2021/05/25 00:31:37;;;;;;;6.90;0.90;;;;;;;4.09;93.95;92917.56;2102505;28;20024;-86
2021/05/25 00:32:38;;;;;;;3.05;0.90;;;;;;;4.18;94.28;92910.00;2101688;28;20540;-85
2021/05/25 00:33:39;;;;;;;4.60;0.90;;;;;;;4.14;91.50;92911.13;2099932;28;20028;-86
2021/05/25 00:34:39;;;;;;;4.03;0.90;;;;;;;4.19;92.12;92916.78;2093569;28;20036;-85
2021/05/25 00:35:41;;;;;;;3.63;1.13;;;;;;;4.11;93.21;92917.94;2092157;28;20036;-86
2021/05/25 00:36:41;;;;;;;4.35;0.85;;;;;;;4.09;92.31;92922.09;2090873;28;20416;-85
2021/05/25 00:37:42;;;;;;;8.23;1.20;;;;;;;3.96;94.48;92921.72;2084069;28;20029;-86
2021/05/25 00:38:43;;;;;;;3.58;1.15;;;;;;;3.99;94.36;92918.31;2092570;28;20017;-84
2021/05/25 00:39:44;;;;;;;4.70;1.38;;;;;;;4.03;94.91;92927.00;2085245;28;20024;-86
2021/05/25 00:40:45;;;;;;;5.35;1.13;;;;;;;4.09;94.74;92920.22;2100278;28;20480;-86
2021/05/25 00:41:45;;;;;;;3.85;1.20;;;;;;;4.04;92.40;92928.53;2102253;28;20028;-85
2021/05/25 00:42:46;;;;;;;5.50;0.93;;;;;;;4.06;93.69;92912.28;2100310;28;20035;-85
2021/05/25 00:43:47;;;;;;;8.23;1.27;;;;;;;3.99;95.20;92911.13;2091864;28;20052;-85
2021/05/25 00:44:48;;;;;;;4.97;1.05;;;;;;;4.05;91.55;92911.53;2099891;28;20028;-85
2021/05/25 00:45:49;;;;;;;4.25;1.30;;;;;;;4.16;89.72;92908.84;2101116;28;20798;-85
2021/05/25 00:46:52;;;;;;;6.93;1.17;;;;;;;4.10;92.55;92915.66;2092007;28;20528;-85
2021/05/25 00:47:52;;;;;;;4.70;1.33;;;;;;;4.11;91.43;92906.59;2110050;28;20019;-86
2021/05/25 00:48:53;;;;;;;3.20;1.35;;;;;;;4.06;92.08;92912.28;2099704;28;20028;-85
2021/05/25 00:49:55;;;;;;;5.38;1.15;;;;;;;4.00;93.19;92903.97;2092983;28;20028;-85
2021/05/25 00:50:56;;;;;;;3.13;1.00;;;;;;;4.09;93.24;92906.97;2100899;28;20024;-86
2021/05/25 00:51:56;;;;;;;2.70;0.90;;;;;;;4.05;92.41;92906.22;2092446;28;20111;-85
2021/05/25 00:53:00;;;;;;;3.85;0.90;;;;;;;4.06;93.46;92904.34;2083864;28;20087;-86
2021/05/25 00:54:01;;;;;;;6.45;1.05;;;;;;;3.99;92.22;92913.78;2085487;28;20297;-85
2021/05/25 00:55:03;;;;;;;4.05;1.10;;;;;;;4.04;93.02;92910.78;2084892;28;20025;-85
2021/05/25 00:56:04;;;;;;;5.28;1.15;;;;;;;4.03;91.60;92916.41;2095266;28;20099;-85
2021/05/25 00:57:05;;;;;;;4.25;1.33;;;;;;;3.98;92.56;92917.56;2101071;28;20032;-86
2021/05/25 00:58:09;;;;;;;4.70;1.30;;;;;;;3.89;93.54;92921.72;2092327;28;20132;-86
2021/05/25 00:59:09;;;;;;;4.47;0.90;;;;;;;3.89;94.05;92911.88;2101250;28;20053;-85
2021/05/25 01:00:12;;;;;;;4.43;1.10;;;;;;;3.91;93.84;92922.09;2108467;28;20031;-86
2021/05/25 01:01:12;;;;;;;4.35;1.27;;;;;;;3.94;94.22;92919.44;2101342;28;20233;-86
2021/05/25 01:02:13;;;;;;;11.20;1.67;;;;;;;3.89;95.00;92917.19;2091519;28;20085;-85
2021/05/25 01:03:19;;;;;;;4.95;1.15;;;;;;;3.91;94.55;92922.84;2102175;28;20077;-86
2021/05/25 01:04:19;;;;;;;7.22;1.20;;;;;;;4.00;91.38;92925.88;2109041;28;20804;-85
2021/05/25 01:05:20;;;;;;;4.80;1.02;;;;;;;3.98;92.74;92924.72;2101392;28;20076;-86
2021/05/25 01:06:21;;;;;;;4.85;1.40;;;;;;;4.00;92.26;92917.19;2100321;28;20110;-85
2021/05/25 01:07:22;;;;;;;4.00;1.02;;;;;;;3.94;92.13;92914.16;2092081;28;20119;-85
2021/05/25 01:08:22;;;;;;;3.28;1.08;;;;;;;3.96;93.28;92927.75;2083646;28;20036;-86
2021/05/25 01:09:23;;;;;;;6.65;1.88;;;;;;;3.89;93.01;92929.66;2083255;28;20052;-85
2021/05/25 01:11:29;;;;;;;3.50;1.08;;;;;;;3.82;94.36;92919.84;2092777;28;20024;-86
2021/05/25 01:12:32;;;;;;;4.55;1.20;;;;;;;3.94;92.26;92916.78;2090567;28;20117;-85
2021/05/25 01:13:43;;;;;;;6.72;1.42;;;;;;;3.98;90.91;92922.84;2093443;28;20031;-86
2021/05/25 01:14:51;;;;;;;8.18;1.88;;;;;;;3.96;93.62;92925.13;2094008;28;20016;-86
2021/05/25 01:15:52;;;;;;;5.60;1.35;;;;;;;3.84;93.27;92928.13;2100075;28;20020;-85
2021/05/25 01:16:53;;;;;;;5.32;1.35;;;;;;;3.93;94.50;92931.16;2100342;28;20119;-85
2021/05/25 01:17:55;;;;;;;7.40;1.30;;;;;;;3.85;95.85;92932.28;2086018;28;20237;-86
2021/05/25 01:18:57;;;;;;;6.28;1.45;;;;;;;3.93;95.11;92935.69;2092264;28;20080;-86
2021/05/25 01:19:59;;;;;;;8.15;1.20;;;;;;;3.98;94.51;92925.47;2093766;28;20021;-86
2021/05/25 01:21:00;;;;;;;5.68;1.33;;;;;;;3.95;94.86;92944.00;2093416;28;20132;-86
2021/05/25 01:22:01;;;;;;;5.97;1.25;;;;;;;3.95;94.75;92942.13;2101050;28;20032;-86
2021/05/25 01:23:01;;;;;;;5.25;1.20;;;;;;;4.06;92.94;92936.81;2109487;28;20032;-85
2021/05/25 01:24:03;;;;;;;3.90;1.10;;;;;;;4.16;90.70;92935.31;2098921;28;20266;-86
2021/05/25 01:25:12;;;;;;;7.95;1.60;;;;;;;4.09;92.22;92935.31;2095242;28;20381;-86
2021/05/25 01:26:15;;;;;;;7.20;1.13;;;;;;;4.02;91.40;92931.53;2098004;28;20032;-85
2021/05/25 01:27:16;;;;;;;5.03;1.27;;;;;;;4.17;92.29;92923.59;2084883;28;20029;-85
2021/05/25 01:28:20;;;;;;;5.72;1.35;;;;;;;4.20;91.26;92920.19;2096473;28;20078;-85
2021/05/25 01:29:21;;;;;;;7.03;0.95;;;;;;;4.20;92.53;92922.84;2091551;28;20078;-84
2021/05/25 01:30:44;;;;;;;6.15;1.23;;;;;;;4.24;88.79;92923.59;2084393;28;20068;-85
2021/05/25 01:31:45;;;;;;;4.47;1.13;;;;;;;4.19;89.44;92924.72;2095571;28;20028;-85
2021/05/25 01:32:46;;;;;;;5.43;1.30;;;;;;;4.15;90.21;92936.44;2091352;28;20490;-84
2021/05/25 01:33:46;;;;;;;6.63;1.25;;;;;;;4.26;89.72;92937.97;2100383;28;20016;-85
2021/05/25 01:34:47;;;;;;;5.95;1.20;;;;;;;4.31;89.99;92936.06;2100186;28;20448;-84
2021/05/25 01:35:48;;;;;;;5.32;1.25;;;;;;;4.24;91.71;92934.16;2093160;28;20100;-85
2021/05/25 01:36:49;;;;;;;5.70;1.25;;;;;;;4.34;91.13;92932.63;2092230;28;20028;-85
2021/05/25 01:37:51;;;;;;;8.57;1.67;;;;;;;4.26;91.58;92943.25;2091383;28;20570;-85
2021/05/25 01:38:52;;;;;;;6.50;1.55;;;;;;;4.23;92.81;92945.88;2100630;28;20029;-85
2021/05/25 01:39:55;;;;;;;4.40;1.33;;;;;;;4.19;92.01;92947.78;2093917;28;20191;-86
2021/05/25 01:40:57;;;;;;;7.57;1.58;;;;;;;4.24;90.97;92950.78;2096269;28;20412;-85
2021/05/25 01:41:58;;;;;;;8.35;1.58;;;;;;;4.18;92.33;92948.91;2093034;28;20032;-86
2021/05/25 01:42:59;;;;;;;5.88;1.45;;;;;;;4.18;93.05;92954.97;2104090;28;20020;-85
2021/05/25 01:44:00;;;;;;;11.45;1.40;;;;;;;4.18;92.48;92968.19;2112878;28;20023;-85
2021/05/25 01:45:05;;;;;;;5.63;1.30;;;;;;;4.35;89.01;92964.03;2097175;28;20546;-86
2021/05/25 01:46:06;;;;;;;9.82;1.48;;;;;;;4.51;89.89;92969.66;2097060;28;20054;-87
2021/05/25 01:47:06;;;;;;;8.82;1.60;;;;;;;4.43;91.13;92968.16;2089000;28;20075;-86
2021/05/25 01:48:09;;;;;;;6.68;1.25;;;;;;;4.32;93.33;92975.38;2102712;28;20492;-87
2021/05/25 01:49:09;;;;;;;8.60;1.67;;;;;;;4.33;94.84;92987.44;2097072;28;20154;-85
2021/05/25 01:50:13;;;;;;;8.15;1.60;;;;;;;4.22;94.51;92982.19;2097111;28;20245;-85
2021/05/25 01:51:14;;;;;;;6.95;1.20;;;;;;;4.34;94.07;92975.72;2105973;28;20051;-86
2021/05/25 01:52:17;;;;;;;9.48;1.60;;;;;;;4.26;95.70;92982.94;2105619;28;20028;-85
2021/05/25 01:53:21;;;;;;;7.90;1.40;;;;;;;4.19;95.84;92987.47;2095866;28;20025;-86
2021/05/25 01:54:21;;;;;;;5.72;1.20;;;;;;;4.13;94.33;92973.88;2087217;28;20524;-86
2021/05/25 01:55:38;;;;;;;8.15;1.60;;;;;;;4.02;94.72;92965.16;2097432;28;20028;-87
2021/05/25 01:56:39;;;;;;;3.78;1.20;;;;;;;3.97;96.16;92970.81;2094729;28;20033;-86
2021/05/25 01:57:40;;;;;;;4.38;1.30;;;;;;;3.96;96.15;92974.59;2092280;28;20030;-87
2021/05/25 01:58:41;;;;;;;6.03;1.30;;;;;;;3.77;96.64;92971.16;2105480;28;20115;-86
2021/05/25 01:59:41;;;;;;;4.20;1.20;;;;;;;3.68;96.28;92976.06;2092997;28;20025;-86
2021/05/25 02:00:45;;;;;;;7.13;1.40;;;;;;;3.89;96.96;92959.47;2089972;28;20033;-86
2021/05/25 02:01:45;;;;;;;5.75;1.30;;;;;;;3.74;94.97;92956.06;2103135;28;20923;-86
2021/05/25 02:02:46;;;;;;;2.83;0.90;;;;;;;3.69;95.86;92966.28;2101189;28;20015;-85
2021/05/25 02:05:22;;;;;;;;;;;;;;;3.64;96.19;92963.97;2147253;27;20113;-85
2021/05/25 02:06:23;;;;;;;6.78;1.45;;;;;;;3.65;94.19;92954.94;2122331;27;20739;-85
2021/05/25 02:07:23;;;;;;;4.38;0.95;;;;;;;3.62;95.80;92961.72;2119444;28;20061;-85
2021/05/25 02:08:26;;;;;;;3.20;0.80;;;;;;;3.57;96.32;92950.75;2122135;27;20027;-86
2021/05/25 02:09:26;;;;;;;5.07;1.20;;;;;;;3.53;95.59;92953.41;2104626;28;20075;-86
2021/05/25 02:10:35;;;;;;;7.93;1.33;;;;;;;3.54;94.88;92960.94;2104378;28;20051;-85
2021/05/25 02:11:36;;;;;;;7.90;1.45;;;;;;;3.53;95.83;92959.44;2108743;27;20034;-85
2021/05/25 02:12:37;;;;;;;6.05;1.52;;;;;;;3.60;94.07;92957.94;2118858;27;20039;-85
2021/05/25 02:13:40;;;;;;;3.92;0.98;;;;;;;3.65;93.76;92949.66;2112436;28;20031;-85
2021/05/25 02:14:40;;;;;;;4.38;0.95;;;;;;;3.66;92.28;92946.63;2113045;28;20023;-86
2021/05/25 02:15:44;;;;;;;4.68;1.00;;;;;;;3.52;93.76;92954.53;2104433;28;20044;-85
2021/05/25 02:16:45;;;;;;;7.20;1.50;;;;;;;3.50;93.79;92954.13;2105047;28;20048;-85
2021/05/25 02:17:45;;;;;;;1.88;1.00;;;;;;;3.57;95.10;92959.44;2109703;28;20069;-84
2021/05/25 02:18:48;;;;;;;2.90;1.00;;;;;;;3.52;94.07;92954.53;2117065;28;20490;-85
2021/05/25 02:19:49;;;;;;;6.50;1.30;;;;;;;3.47;94.40;92946.97;2121029;28;20023;-86
2021/05/25 02:20:52;;;;;;;4.95;1.13;;;;;;;3.42;94.34;92965.81;2112742;28;20058;-85
2021/05/25 02:21:53;;;;;;;5.78;1.33;;;;;;;3.59;93.65;92959.81;2104944;28;20504;-85
2021/05/25 02:22:53;;;;;;;2.80;1.10;;;;;;;3.46;93.61;92953.38;2104352;28;20020;-87
2021/05/25 02:23:54;;;;;;;9.15;1.27;;;;;;;3.46;91.85;92951.47;2117443;28;20034;-87
2021/05/25 02:24:54;;;;;;;6.57;1.00;;;;;;;3.52;91.78;92941.31;2124561;27;20126;-87
2021/05/25 02:25:56;;;;;;;6.00;1.35;;;;;;;3.51;92.77;92935.28;2112982;28;20519;-89
2021/05/25 02:26:57;;;;;;;7.40;1.50;;;;;;;3.49;92.40;92950.75;2116850;27;20023;-84
2021/05/25 02:27:58;;;;;;;7.25;1.52;;;;;;;3.43;93.34;92956.78;2121190;28;20495;-87
2021/05/25 02:28:59;;;;;;;10.88;1.45;;;;;;;3.57;92.45;92962.09;2112688;28;20024;-84
2021/05/25 02:30:00;;;;;;;4.43;1.30;;;;;;;3.58;91.69;92955.66;2120875;28;20050;-84
2021/05/25 02:31:00;;;;;;;5.10;1.40;;;;;;;3.53;91.31;92959.44;2113735;28;20035;-85
2021/05/25 02:32:01;;;;;;;4.28;1.70;;;;;;;3.52;93.25;92955.28;2121333;27;20022;-86
2021/05/25 02:33:06;;;;;;;9.80;1.38;;;;;;;3.59;91.29;92961.69;2132304;27;20038;-85
2021/05/25 02:34:07;;;;;;;7.53;1.27;;;;;;;3.63;90.37;92954.53;2121492;27;20023;-84
2021/05/25 02:35:08;;;;;;;6.25;1.33;;;;;;;3.46;92.08;92964.69;2136637;27;20094;-85
2021/05/25 02:36:09;;;;;;;6.10;1.40;;;;;;;3.46;92.03;92945.44;2132888;27;20097;-87
2021/05/25 02:37:10;;;;;;;9.30;1.52;;;;;;;3.49;91.10;92945.47;2121091;28;20019;-85
2021/05/25 02:38:13;;;;;;;11.57;1.40;;;;;;;3.56;89.84;92955.31;2112753;28;20024;-84
2021/05/25 02:39:14;;;;;;;8.23;1.70;;;;;;;3.63;90.95;92941.31;2121204;27;20019;-84
2021/05/25 02:40:15;;;;;;;6.53;1.25;;;;;;;3.61;90.99;92948.88;2112585;28;20387;-85
2021/05/25 02:41:16;;;;;;;6.22;1.30;;;;;;;3.56;90.99;92936.03;2111212;28;20106;-85
2021/05/25 02:42:16;;;;;;;7.50;1.40;;;;;;;3.56;89.72;92931.50;2109465;28;20024;-86
2021/05/25 02:43:20;;;;;;;9.23;1.45;;;;;;;3.55;91.48;92919.41;2108149;28;20016;-85
2021/05/25 02:44:21;;;;;;;6.78;1.77;;;;;;;3.60;89.22;92926.22;2105109;27;20024;-85
2021/05/25 02:45:22;;;;;;;8.32;1.60;;;;;;;3.52;91.83;92920.19;2108289;28;20028;-86
2021/05/25 02:46:22;;;;;;;6.07;1.20;;;;;;;3.42;91.60;92931.47;2114127;28;20434;-86
2021/05/25 02:47:23;;;;;;;6.55;1.42;;;;;;;3.42;92.33;92940.16;2116122;28;20019;-85
2021/05/25 02:48:25;;;;;;;6.53;1.20;;;;;;;3.56;92.85;92947.38;2118611;28;20054;-85
2021/05/25 02:49:28;;;;;;;9.18;1.20;;;;;;;3.52;92.30;92952.66;2109018;28;20088;-86
2021/05/25 02:50:29;;;;;;;8.15;1.42;;;;;;;3.67;88.43;92950.03;2106382;27;20090;-86
2021/05/25 02:51:30;;;;;;;8.75;1.48;;;;;;;3.69;89.70;92951.16;2105827;27;20064;-85
2021/05/25 02:52:30;;;;;;;7.90;1.25;;;;;;;3.65;90.21;92939.84;2119335;28;20035;-86
2021/05/25 02:53:31;;;;;;;7.03;1.80;;;;;;;3.66;91.39;92949.25;2121517;27;20077;-85
2021/05/25 02:54:32;;;;;;;6.93;1.70;;;;;;;3.70;91.81;92957.22;2112356;28;20031;-85
2021/05/25 02:55:35;;;;;;;10.27;2.42;;;;;;;3.72;93.47;92949.66;2106204;28;20130;-85
2021/05/25 02:56:36;;;;;;;9.10;1.48;;;;;;;3.54;94.72;92957.53;2117228;27;20038;-87
2021/05/25 02:57:36;;;;;;;6.18;1.20;;;;;;;3.49;95.50;92961.31;2112495;28;20075;-88
2021/05/25 02:58:37;;;;;;;10.30;1.40;;;;;;;3.51;93.84;92968.84;2108999;28;20020;-87
2021/05/25 02:59:38;;;;;;;10.15;1.52;;;;;;;3.56;94.11;92973.00;2116320;28;20797;-84
2021/05/25 03:00:45;;;;;;;5.00;1.23;;;;;;;3.46;96.18;92964.69;2119232;27;20030;-84
2021/05/25 03:01:46;;;;;;;8.00;1.30;;;;;;;3.53;95.31;92969.25;2104480;28;20024;-85
2021/05/25 03:02:47;;;;;;;7.20;1.40;;;;;;;3.43;95.92;92965.47;2110415;28;20031;-86
2021/05/25 03:03:48;;;;;;;9.02;1.38;;;;;;;3.51;95.95;92988.13;2116878;27;20023;-84
2021/05/25 03:04:49;;;;;;;8.75;1.30;;;;;;;3.44;95.08;92968.84;2120295;28;20130;-85
2021/05/25 03:05:50;;;;;;;7.50;1.10;;;;;;;3.51;94.23;92974.91;2112379;28;20024;-85
2021/05/25 03:06:50;;;;;;;5.05;1.30;;;;;;;3.50;95.76;92975.28;2113445;28;20494;-84
2021/05/25 03:07:56;;;;;;;6.32;1.13;;;;;;;3.42;94.33;93002.81;2114358;28;20069;-83
2021/05/25 03:08:57;;;;;;;7.70;1.05;;;;;;;3.38;95.62;92981.69;2117941;27;20098;-85
2021/05/25 03:09:58;;;;;;;5.20;1.25;;;;;;;3.35;95.57;92965.81;2128236;27;20029;-86
2021/05/25 03:10:59;;;;;;;5.78;1.00;;;;;;;3.34;94.19;92978.25;2120662;28;20019;-85
2021/05/25 03:12:00;;;;;;;2.40;0.73;;;;;;;3.41;94.47;92994.13;2118550;27;20027;-84
2021/05/25 03:13:01;;;;;;;4.97;1.15;;;;;;;3.42;93.91;92997.53;2120727;28;20507;-85
2021/05/25 03:14:02;;;;;;;3.03;0.75;;;;;;;3.38;96.04;92997.53;2103789;28;20028;-86
2021/05/25 03:15:06;;;;;;;4.78;1.20;;;;;;;3.27;95.60;92986.91;2117914;27;20022;-86
2021/05/25 03:16:06;;;;;;;4.32;1.02;;;;;;;3.41;95.01;92973.00;2117352;28;20015;-86
2021/05/25 03:17:07;;;;;;;5.22;1.10;;;;;;;3.38;94.54;92986.97;2116665;27;20034;-85
2021/05/25 03:18:10;;;;;;;5.60;1.08;;;;;;;3.35;95.51;92990.34;2120088;27;20015;-86
2021/05/25 03:19:11;;;;;;;5.05;1.10;;;;;;;3.30;95.53;92998.63;2099651;28;20377;-86
2021/05/25 03:20:15;;;;;;;6.40;1.10;;;;;;;3.33;92.72;92995.22;2108317;28;20751;-85
2021/05/25 03:21:15;;;;;;;1.65;0.90;;;;;;;3.22;94.82;92995.19;2107408;28;20028;-84
2021/05/25 03:22:16;;;;;;;3.03;1.23;;;;;;;3.22;92.66;93000.47;2106668;28;20020;-85
2021/05/25 03:23:18;;;;;;;2.45;0.80;;;;;;;3.15;93.77;92989.88;2115148;28;20035;-84
2021/05/25 03:24:21;;;;;;;2.17;0.75;;;;;;;3.25;93.39;92994.47;2108301;28;20803;-84
2021/05/25 03:25:22;;;;;;;3.92;1.00;;;;;;;3.22;92.09;92989.91;2102343;28;20513;-86
2021/05/25 03:26:22;;;;;;;4.68;1.08;;;;;;;3.28;91.53;92996.34;2100800;28;20032;-84
2021/05/25 03:27:24;;;;;;;3.80;1.00;;;;;;;3.30;92.53;93000.50;2098795;28;20028;-84
2021/05/25 03:28:25;;;;;;;3.85;1.00;;;;;;;3.28;93.46;92995.59;2109925;28;20665;-85
2021/05/25 03:29:26;;;;;;;6.55;1.10;;;;;;;3.28;94.45;92998.22;2098928;28;20035;-85
2021/05/25 03:30:28;;;;;;;2.53;0.60;;;;;;;3.27;92.32;92994.09;2098870;28;20035;-85
2021/05/25 03:31:28;;;;;;;6.38;1.10;;;;;;;3.32;94.41;92985.03;2114822;28;20024;-85
2021/05/25 03:32:29;;;;;;;1.45;0.68;;;;;;;3.29;94.46;92986.53;2107882;28;20077;-84
2021/05/25 03:33:29;;;;;;;3.38;0.90;;;;;;;3.32;94.58;92991.06;2105253;28;20031;-85
2021/05/25 03:34:31;;;;;;;5.45;0.93;;;;;;;3.39;92.98;92987.72;2114770;28;20723;-85
2021/05/25 03:35:31;;;;;;;1.85;0.88;;;;;;;3.32;92.67;92999.00;2112646;28;20057;-84
2021/05/25 03:36:32;;;;;;;4.03;1.10;;;;;;;3.27;93.27;93000.13;2108335;28;20023;-87
2021/05/25 03:37:34;;;;;;;2.13;1.08;;;;;;;3.24;93.56;92992.94;2113051;28;20031;-85
2021/05/25 03:38:35;;;;;;;3.55;1.00;;;;;;;3.29;93.27;92999.72;2108601;27;20059;-85
2021/05/25 03:39:36;;;;;;;4.82;1.00;;;;;;;3.30;93.25;92995.22;2110203;28;20733;-84
2021/05/25 03:40:37;;;;;;;5.43;1.40;;;;;;;3.33;91.83;92999.75;2098257;28;20093;-84
2021/05/25 03:41:37;;;;;;;1.38;0.85;;;;;;;3.28;90.94;92998.97;2098113;28;20062;-85
2021/05/25 03:42:39;;;;;;;2.72;1.10;;;;;;;3.33;90.38;92997.88;2106548;28;20860;-85
2021/05/25 03:43:39;;;;;;;5.72;1.02;;;;;;;3.36;90.71;93005.06;2114835;28;20070;-85
2021/05/25 03:44:40;;;;;;;6.65;1.00;;;;;;;3.42;89.79;92994.88;2106412;28;20047;-85
2021/05/25 03:45:40;;;;;;;2.60;0.80;;;;;;;3.36;92.17;92994.50;2097879;28;20464;-86
2021/05/25 03:46:42;;;;;;;3.50;0.80;;;;;;;3.31;91.93;93009.94;2106357;28;20192;-85
2021/05/25 03:47:43;;;;;;;3.38;0.90;;;;;;;3.36;91.70;92991.84;2106381;28;20051;-85
2021/05/25 03:48:44;;;;;;;5.60;0.95;;;;;;;3.32;90.88;93008.81;2098000;28;20056;-85
2021/05/25 03:49:46;;;;;;;2.97;1.08;;;;;;;3.47;91.06;92997.94;2097857;28;20028;-84
2021/05/25 03:50:47;;;;;;;3.35;0.80;;;;;;;3.31;92.21;93004.66;2106727;28;20039;-84
2021/05/25 03:51:48;;;;;;;4.93;1.10;;;;;;;3.32;91.58;93012.22;2097756;28;20740;-85
2021/05/25 03:52:54;;;;;;;4.40;1.10;;;;;;;3.34;90.52;93009.22;2112386;28;20071;-84
2021/05/25 03:53:55;;;;;;;5.50;0.93;;;;;;;3.37;91.10;93001.28;2111094;27;20580;-85
2021/05/25 03:54:59;;;;;;;3.40;1.10;;;;;;;3.42;90.76;93008.84;2111031;28;20024;-85
2021/05/25 03:57:24;;;;;;;4.32;1.17;;;;;;;3.38;92.45;93010.75;2117331;27;20023;-84
2021/05/25 03:59:44;;;;;;;2.53;1.02;;;;;;;3.41;94.43;93014.50;2111323;27;20020;-85
2021/05/25 04:00:45;;;;;;;5.25;1.33;;;;;;;3.44;94.63;93008.47;2115930;27;20477;-85
2021/05/25 04:01:46;;;;;;;2.17;0.70;;;;;;;3.44;90.68;93017.16;2113383;28;20024;-84
2021/05/25 04:02:46;;;;;;;3.65;0.90;;;;;;;3.46;90.19;93019.41;2099186;28;20052;-87
2021/05/25 04:03:53;;;;;;;3.10;0.73;;;;;;;3.46;90.80;93009.59;2097573;28;20029;-85
2021/05/25 04:04:53;;;;;;;4.03;1.10;;;;;;;3.50;88.73;93009.63;2116994;27;20133;-85
2021/05/25 04:05:54;;;;;;;3.28;0.82;;;;;;;3.49;91.28;93008.88;2106067;28;20497;-85
2021/05/25 04:06:55;;;;;;;3.65;0.88;;;;;;;3.57;91.79;93011.53;2119573;27;20109;-85
2021/05/25 04:07:56;;;;;;;3.40;0.80;;;;;;;3.51;89.47;93003.19;2118037;27;20472;-84
2021/05/25 04:08:56;;;;;;;3.40;1.10;;;;;;;3.47;87.84;93013.78;2102918;28;20055;-85
2021/05/25 04:09:57;;;;;;;4.25;1.00;;;;;;;3.53;87.82;93027.38;2111579;28;20027;-84
2021/05/25 04:10:58;;;;;;;4.00;0.80;;;;;;;3.54;87.45;93018.31;2109184;28;20015;-86
2021/05/25 04:11:58;;;;;;;3.88;1.00;;;;;;;3.52;87.89;93017.94;2106166;28;20035;-85
2021/05/25 04:12:59;;;;;;;7.28;1.48;;;;;;;3.51;89.56;93016.41;2112077;28;20084;-85
2021/05/25 04:14:00;;;;;;;6.97;1.17;;;;;;;3.49;89.64;93022.09;2105914;28;20171;-85
2021/05/25 04:15:00;;;;;;;4.88;1.15;;;;;;;3.54;89.68;93015.69;2097722;28;20059;-83
2021/05/25 04:16:02;;;;;;;4.93;1.20;;;;;;;3.45;90.47;93015.28;2103829;28;20028;-85
2021/05/25 04:17:02;;;;;;;5.70;1.20;;;;;;;3.39;91.48;93024.69;2106022;28;20023;-85
2021/05/25 04:18:03;;;;;;;6.22;1.00;;;;;;;3.48;89.69;93027.75;2103964;28;20028;-85
2021/05/25 04:19:04;;;;;;;2.78;0.90;;;;;;;3.49;91.27;93016.78;2100023;28;20028;-86
2021/05/25 04:20:05;;;;;;;2.30;1.05;;;;;;;3.46;89.20;93024.72;2107493;28;20453;-84
2021/05/25 04:21:06;;;;;;;6.18;1.08;;;;;;;3.52;86.94;93024.00;2112216;28;20031;-84
2021/05/25 04:22:07;;;;;;;2.58;0.90;;;;;;;3.54;87.04;93031.53;2111255;28;20019;-84
2021/05/25 04:23:09;;;;;;;3.90;1.60;;;;;;;3.53;89.71;93025.50;2101770;28;20477;-85
2021/05/25 04:24:09;;;;;;;3.67;1.17;;;;;;;3.52;90.03;93033.81;2111850;27;20043;-85
2021/05/25 04:25:10;;;;;;;4.35;1.48;;;;;;;3.46;89.25;93032.63;2107393;28;20448;-86
2021/05/25 04:26:11;;;;;;;4.82;1.20;;;;;;;3.45;88.34;93036.41;2105950;28;20057;-84
2021/05/25 04:27:12;;;;;;;5.88;1.00;;;;;;;3.45;87.40;93045.09;2097578;28;20020;-84
2021/05/25 04:28:14;;;;;;;5.47;1.20;;;;;;;3.44;88.90;93038.31;2088805;28;20025;-87
2021/05/25 04:29:15;;;;;;;5.35;1.40;;;;;;;3.49;91.01;93039.81;2097504;28;20027;-86
2021/05/25 04:30:16;;;;;;;2.55;0.80;;;;;;;3.46;88.80;93046.59;2097711;28;20020;-83
2021/05/25 04:31:17;;;;;;;4.70;1.40;;;;;;;3.61;88.47;93049.31;2097754;28;20024;-84
2021/05/25 04:32:17;;;;;;;2.70;0.95;;;;;;;3.67;88.72;93045.16;2097710;28;20048;-87
2021/05/25 04:33:18;;;;;;;5.95;1.10;;;;;;;3.75;89.29;93046.72;2105930;28;20422;-87
2021/05/25 04:34:19;;;;;;;4.47;1.15;;;;;;;3.77;90.25;93041.78;2114497;28;20023;-86
2021/05/25 04:35:20;;;;;;;4.38;0.88;;;;;;;3.84;85.10;93043.72;2112452;27;20467;-87
2021/05/25 04:36:21;;;;;;;5.10;0.98;;;;;;;3.89;84.31;93048.63;2112947;27;20034;-86
2021/05/25 04:37:21;;;;;;;5.00;1.20;;;;;;;3.84;85.68;93054.28;2097763;28;20926;-86
2021/05/25 04:38:22;;;;;;;5.40;1.55;;;;;;;3.85;86.97;93053.91;2105990;28;20033;-87
2021/05/25 04:39:23;;;;;;;4.45;1.00;;;;;;;3.93;85.18;93052.03;2110882;28;20023;-86
2021/05/25 04:40:25;;;;;;;3.28;0.80;;;;;;;4.06;84.15;93055.84;2119571;27;20023;-84
2021/05/25 04:41:27;;;;;;;4.05;0.90;;;;;;;4.08;83.52;93058.09;2112626;28;20020;-83
2021/05/25 04:42:28;;;;;;;5.82;1.02;;;;;;;4.10;85.72;93058.50;2097688;28;20427;-84
2021/05/25 04:43:28;;;;;;;4.93;1.00;;;;;;;4.03;86.67;93065.25;2098489;28;20082;-86
2021/05/25 04:44:29;;;;;;;4.03;1.00;;;;;;;4.00;88.52;93058.09;2105874;28;20028;-85
2021/05/25 04:45:30;;;;;;;7.35;1.20;;;;;;;4.08;87.08;93071.31;2105936;28;20027;-86
2021/05/25 04:46:30;;;;;;;3.33;1.23;;;;;;;3.93;88.27;93068.66;2106233;28;20580;-83
2021/05/25 04:47:31;;;;;;;4.57;1.20;;;;;;;4.00;88.35;93073.22;2093816;28;20123;-84
2021/05/25 04:48:32;;;;;;;6.35;1.15;;;;;;;4.12;89.05;93082.66;2097646;28;20027;-84
2021/05/25 04:49:33;;;;;;;4.30;0.80;;;;;;;4.10;87.58;93077.75;2097382;28;20366;-85
2021/05/25 04:50:35;;;;;;;3.65;1.15;;;;;;;4.09;87.24;93063.03;2094088;28;20036;-84
2021/05/25 04:51:36;;;;;;;4.20;1.15;;;;;;;4.22;83.64;93080.06;2114343;28;20479;-86
2021/05/25 04:52:37;;;;;;;5.07;1.40;;;;;;;4.22;84.31;93064.19;2105924;28;20028;-89
2021/05/25 04:53:38;;;;;;;5.78;1.55;;;;;;;4.33;84.92;93074.75;2097581;28;20695;-89
2021/05/25 04:54:39;;;;;;;4.63;1.10;;;;;;;4.25;86.42;93078.53;2105865;28;20105;-86
2021/05/25 04:55:40;;;;;;;4.55;1.27;;;;;;;4.19;87.03;93074.75;2105938;28;20107;-85
2021/05/25 04:56:40;;;;;;;3.72;1.00;;;;;;;4.27;84.24;93074.38;2122646;27;20035;-85
2021/05/25 04:57:41;;;;;;;2.25;1.00;;;;;;;4.25;85.82;93075.88;2122526;27;20042;-86
2021/05/25 04:58:42;;;;;;;5.55;1.33;;;;;;;4.28;86.54;93089.13;2114081;28;20115;-87